sensor_id;sensor_type;location;lat;lon;timestamp;P1;durP1;ratioP1;P2;durP2;ratioP2
67869;SDS011;54673;52.262;6.830;2022-11-15T00:01:36;5.27;;;3.07;;
67869;SDS011;54673;52.262;6.830;2022-11-15T00:04:03;4.35;;;2.95;;
67869;SDS011;54673;52.262;6.830;2022-11-15T00:06:29;3.70;;;3.10;;
67869;SDS011;54673;52.262;6.830;2022-11-15T00:08:57;5.07;;;3.20;;
67869;SDS011;54673;52.262;6.830;2022-11-15T00:11:24;4.23;;;2.80;;
67869;SDS011;54673;52.262;6.830;2022-11-15T00:13:50;3.78;;;2.70;;
67869;SDS011;54673;52.262;6.830;2022-11-15T00:16:15;4.30;;;2.93;;
67869;SDS011;54673;52.262;6.830;2022-11-15T00:18:42;3.28;;;2.47;;
67869;SDS011;54673;52.262;6.830;2022-11-15T00:21:09;4.50;;;3.40;;
67869;SDS011;54673;52.262;6.830;2022-11-15T00:23:36;4.65;;;2.95;;
67869;SDS011;54673;52.262;6.830;2022-11-15T00:26:02;4.40;;;3.08;;
67869;SDS011;54673;52.262;6.830;2022-11-15T00:28:29;6.60;;;2.90;;
67869;SDS011;54673;52.262;6.830;2022-11-15T00:31:04;4.40;;;2.80;;
67869;SDS011;54673;52.262;6.830;2022-11-15T00:33:32;5.20;;;3.13;;
67869;SDS011;54673;52.262;6.830;2022-11-15T00:36:02;5.32;;;3.10;;
67869;SDS011;54673;52.262;6.830;2022-11-15T00:38:32;4.60;;;3.28;;
67869;SDS011;54673;52.262;6.830;2022-11-15T00:40:59;4.93;;;2.83;;
67869;SDS011;54673;52.262;6.830;2022-11-15T00:43:26;5.80;;;3.35;;
67869;SDS011;54673;52.262;6.830;2022-11-15T00:45:53;4.37;;;2.73;;
67869;SDS011;54673;52.262;6.830;2022-11-15T00:48:18;3.92;;;3.03;;
67869;SDS011;54673;52.262;6.830;2022-11-15T00:50:44;6.10;;;3.40;;
67869;SDS011;54673;52.262;6.830;2022-11-15T00:53:10;5.13;;;3.17;;
67869;SDS011;54673;52.262;6.830;2022-11-15T00:55:35;4.47;;;2.97;;
67869;SDS011;54673;52.262;6.830;2022-11-15T00:58:01;4.40;;;2.97;;
67869;SDS011;54673;52.262;6.830;2022-11-15T01:00:26;3.80;;;2.87;;
67869;SDS011;54673;52.262;6.830;2022-11-15T01:02:52;5.23;;;2.90;;
67869;SDS011;54673;52.262;6.830;2022-11-15T01:05:18;4.80;;;3.33;;
67869;SDS011;54673;52.262;6.830;2022-11-15T01:07:43;6.03;;;2.90;;
67869;SDS011;54673;52.262;6.830;2022-11-15T01:10:09;5.35;;;3.05;;
67869;SDS011;54673;52.262;6.830;2022-11-15T01:12:35;4.13;;;2.97;;
67869;SDS011;54673;52.262;6.830;2022-11-15T01:15:00;4.78;;;2.72;;
67869;SDS011;54673;52.262;6.830;2022-11-15T01:17:26;5.20;;;2.90;;
67869;SDS011;54673;52.262;6.830;2022-11-15T01:19:52;4.80;;;2.92;;
67869;SDS011;54673;52.262;6.830;2022-11-15T01:22:17;5.30;;;3.10;;
67869;SDS011;54673;52.262;6.830;2022-11-15T01:24:43;4.20;;;2.83;;
67869;SDS011;54673;52.262;6.830;2022-11-15T01:27:08;5.07;;;2.87;;
67869;SDS011;54673;52.262;6.830;2022-11-15T01:29:34;5.53;;;3.17;;
67869;SDS011;54673;52.262;6.830;2022-11-15T01:32:00;5.17;;;3.10;;
67869;SDS011;54673;52.262;6.830;2022-11-15T01:34:26;4.25;;;3.10;;
67869;SDS011;54673;52.262;6.830;2022-11-15T01:36:51;5.80;;;3.30;;
67869;SDS011;54673;52.262;6.830;2022-11-15T01:39:17;4.87;;;3.30;;
67869;SDS011;54673;52.262;6.830;2022-11-15T01:41:42;4.60;;;3.33;;
67869;SDS011;54673;52.262;6.830;2022-11-15T01:46:56;6.60;;;3.28;;
67869;SDS011;54673;52.262;6.830;2022-11-15T01:49:22;5.03;;;2.97;;
67869;SDS011;54673;52.262;6.830;2022-11-15T01:51:49;5.43;;;3.00;;
67869;SDS011;54673;52.262;6.830;2022-11-15T01:54:17;5.57;;;2.88;;
67869;SDS011;54673;52.262;6.830;2022-11-15T01:56:47;4.53;;;2.80;;
67869;SDS011;54673;52.262;6.830;2022-11-15T01:59:20;4.57;;;2.72;;
67869;SDS011;54673;52.262;6.830;2022-11-15T02:01:47;4.75;;;2.90;;
67869;SDS011;54673;52.262;6.830;2022-11-15T02:04:16;5.27;;;3.53;;
67869;SDS011;54673;52.262;6.830;2022-11-15T02:06:46;5.18;;;2.90;;
67869;SDS011;54673;52.262;6.830;2022-11-15T02:09:13;5.53;;;3.13;;
67869;SDS011;54673;52.262;6.830;2022-11-15T02:11:39;6.55;;;2.92;;
67869;SDS011;54673;52.262;6.830;2022-11-15T02:14:05;4.37;;;2.90;;
67869;SDS011;54673;52.262;6.830;2022-11-15T02:19:19;5.07;;;2.95;;
67869;SDS011;54673;52.262;6.830;2022-11-15T02:24:59;4.90;;;3.15;;
67869;SDS011;54673;52.262;6.830;2022-11-15T02:33:04;4.80;;;3.25;;
67869;SDS011;54673;52.262;6.830;2022-11-15T02:38:58;5.03;;;3.00;;
67869;SDS011;54673;52.262;6.830;2022-11-15T02:46:57;4.65;;;2.75;;
67869;SDS011;54673;52.262;6.830;2022-11-15T02:49:38;5.43;;;2.83;;
67869;SDS011;54673;52.262;6.830;2022-11-15T02:52:06;5.60;;;3.22;;
67869;SDS011;54673;52.262;6.830;2022-11-15T02:54:33;4.17;;;3.00;;
67869;SDS011;54673;52.262;6.830;2022-11-15T02:57:07;4.25;;;2.83;;
67869;SDS011;54673;52.262;6.830;2022-11-15T03:08:29;4.97;;;3.13;;
67869;SDS011;54673;52.262;6.830;2022-11-15T03:16:34;3.75;;;2.80;;
67869;SDS011;54673;52.262;6.830;2022-11-15T03:19:20;5.40;;;2.83;;
67869;SDS011;54673;52.262;6.830;2022-11-15T03:21:49;3.03;;;2.33;;
67869;SDS011;54673;52.262;6.830;2022-11-15T03:24:17;5.22;;;3.00;;
67869;SDS011;54673;52.262;6.830;2022-11-15T03:26:45;3.03;;;2.63;;
67869;SDS011;54673;52.262;6.830;2022-11-15T03:29:16;3.38;;;2.40;;
67869;SDS011;54673;52.262;6.830;2022-11-15T03:31:48;3.67;;;2.55;;
67869;SDS011;54673;52.262;6.830;2022-11-15T03:34:29;5.90;;;2.90;;
67869;SDS011;54673;52.262;6.830;2022-11-15T03:37:02;4.82;;;2.90;;
67869;SDS011;54673;52.262;6.830;2022-11-15T03:39:29;4.17;;;2.80;;
67869;SDS011;54673;52.262;6.830;2022-11-15T03:42:08;4.20;;;2.97;;
67869;SDS011;54673;52.262;6.830;2022-11-15T03:44:46;4.68;;;2.97;;
67869;SDS011;54673;52.262;6.830;2022-11-15T03:47:36;5.53;;;2.90;;
67869;SDS011;54673;52.262;6.830;2022-11-15T03:50:07;4.28;;;2.90;;
67869;SDS011;54673;52.262;6.830;2022-11-15T03:52:38;4.77;;;2.87;;
67869;SDS011;54673;52.262;6.830;2022-11-15T03:55:06;5.65;;;3.10;;
67869;SDS011;54673;52.262;6.830;2022-11-15T03:57:35;4.22;;;2.72;;
67869;SDS011;54673;52.262;6.830;2022-11-15T04:00:00;4.63;;;2.80;;
67869;SDS011;54673;52.262;6.830;2022-11-15T04:02:26;4.00;;;2.65;;
67869;SDS011;54673;52.262;6.830;2022-11-15T04:04:53;3.03;;;2.40;;
67869;SDS011;54673;52.262;6.830;2022-11-15T04:07:18;4.43;;;2.70;;
67869;SDS011;54673;52.262;6.830;2022-11-15T04:09:44;4.15;;;2.70;;
67869;SDS011;54673;52.262;6.830;2022-11-15T04:12:28;4.27;;;2.97;;
67869;SDS011;54673;52.262;6.830;2022-11-15T04:17:32;3.70;;;2.75;;
67869;SDS011;54673;52.262;6.830;2022-11-15T04:20:02;4.13;;;2.67;;
67869;SDS011;54673;52.262;6.830;2022-11-15T04:22:47;4.18;;;3.00;;
67869;SDS011;54673;52.262;6.830;2022-11-15T04:25:31;4.47;;;2.77;;
67869;SDS011;54673;52.262;6.830;2022-11-15T04:27:57;3.55;;;2.47;;
67869;SDS011;54673;52.262;6.830;2022-11-15T04:30:23;4.43;;;2.70;;
67869;SDS011;54673;52.262;6.830;2022-11-15T04:32:48;4.00;;;2.83;;
67869;SDS011;54673;52.262;6.830;2022-11-15T04:35:14;4.07;;;2.57;;
67869;SDS011;54673;52.262;6.830;2022-11-15T04:37:39;3.73;;;2.50;;
67869;SDS011;54673;52.262;6.830;2022-11-15T04:40:05;4.07;;;2.40;;
67869;SDS011;54673;52.262;6.830;2022-11-15T04:42:31;4.30;;;2.60;;
67869;SDS011;54673;52.262;6.830;2022-11-15T04:44:57;4.30;;;3.08;;
67869;SDS011;54673;52.262;6.830;2022-11-15T04:47:22;3.80;;;2.73;;
67869;SDS011;54673;52.262;6.830;2022-11-15T04:49:48;3.17;;;2.47;;
67869;SDS011;54673;52.262;6.830;2022-11-15T04:52:13;3.50;;;2.40;;
67869;SDS011;54673;52.262;6.830;2022-11-15T04:54:39;5.57;;;2.60;;
67869;SDS011;54673;52.262;6.830;2022-11-15T04:57:06;4.22;;;2.50;;
67869;SDS011;54673;52.262;6.830;2022-11-15T04:59:32;3.57;;;2.47;;
67869;SDS011;54673;52.262;6.830;2022-11-15T05:01:58;3.60;;;2.30;;
67869;SDS011;54673;52.262;6.830;2022-11-15T05:04:23;2.33;;;1.93;;
67869;SDS011;54673;52.262;6.830;2022-11-15T05:06:50;3.33;;;2.67;;
67869;SDS011;54673;52.262;6.830;2022-11-15T05:09:17;4.05;;;2.58;;
67869;SDS011;54673;52.262;6.830;2022-11-15T05:11:43;3.73;;;2.40;;
67869;SDS011;54673;52.262;6.830;2022-11-15T05:14:09;3.60;;;2.55;;
67869;SDS011;54673;52.262;6.830;2022-11-15T05:16:35;3.50;;;2.30;;
67869;SDS011;54673;52.262;6.830;2022-11-15T05:19:02;3.70;;;2.40;;
67869;SDS011;54673;52.262;6.830;2022-11-15T05:21:28;3.83;;;2.60;;
67869;SDS011;54673;52.262;6.830;2022-11-15T05:23:53;5.90;;;2.10;;
67869;SDS011;54673;52.262;6.830;2022-11-15T05:26:19;3.97;;;2.40;;
67869;SDS011;54673;52.262;6.830;2022-11-15T05:28:45;5.50;;;2.63;;
67869;SDS011;54673;52.262;6.830;2022-11-15T05:31:12;3.72;;;2.15;;
67869;SDS011;54673;52.262;6.830;2022-11-15T05:33:40;3.27;;;2.37;;
67869;SDS011;54673;52.262;6.830;2022-11-15T05:36:15;4.05;;;2.50;;
67869;SDS011;54673;52.262;6.830;2022-11-15T05:38:56;3.53;;;2.20;;
67869;SDS011;54673;52.262;6.830;2022-11-15T05:41:25;2.92;;;2.30;;
67869;SDS011;54673;52.262;6.830;2022-11-15T05:43:56;3.80;;;2.37;;
67869;SDS011;54673;52.262;6.830;2022-11-15T05:46:22;4.22;;;2.30;;
67869;SDS011;54673;52.262;6.830;2022-11-15T05:48:48;3.20;;;2.20;;
67869;SDS011;54673;52.262;6.830;2022-11-15T05:51:17;4.38;;;2.33;;
67869;SDS011;54673;52.262;6.830;2022-11-15T05:53:45;3.60;;;2.70;;
67869;SDS011;54673;52.262;6.830;2022-11-15T05:56:12;3.23;;;2.10;;
67869;SDS011;54673;52.262;6.830;2022-11-15T05:58:38;3.70;;;2.55;;
67869;SDS011;54673;52.262;6.830;2022-11-15T06:01:04;4.70;;;2.40;;
67869;SDS011;54673;52.262;6.830;2022-11-15T06:03:29;3.63;;;2.13;;
67869;SDS011;54673;52.262;6.830;2022-11-15T06:05:56;2.90;;;2.23;;
67869;SDS011;54673;52.262;6.830;2022-11-15T06:08:21;2.88;;;2.22;;
67869;SDS011;54673;52.262;6.830;2022-11-15T06:10:47;3.30;;;2.13;;
67869;SDS011;54673;52.262;6.830;2022-11-15T06:13:13;3.63;;;2.40;;
67869;SDS011;54673;52.262;6.830;2022-11-15T06:15:39;2.97;;;1.93;;
67869;SDS011;54673;52.262;6.830;2022-11-15T06:18:04;7.35;;;2.45;;
67869;SDS011;54673;52.262;6.830;2022-11-15T06:20:30;3.23;;;2.33;;
67869;SDS011;54673;52.262;6.830;2022-11-15T06:22:59;4.03;;;2.20;;
67869;SDS011;54673;52.262;6.830;2022-11-15T06:25:26;3.80;;;2.10;;
67869;SDS011;54673;52.262;6.830;2022-11-15T06:27:53;3.95;;;2.22;;
67869;SDS011;54673;52.262;6.830;2022-11-15T06:30:20;3.87;;;2.30;;
67869;SDS011;54673;52.262;6.830;2022-11-15T06:32:47;3.42;;;2.17;;
67869;SDS011;54673;52.262;6.830;2022-11-15T06:35:12;2.80;;;2.30;;
67869;SDS011;54673;52.262;6.830;2022-11-15T06:37:38;4.38;;;2.53;;
67869;SDS011;54673;52.262;6.830;2022-11-15T06:40:04;4.10;;;2.13;;
67869;SDS011;54673;52.262;6.830;2022-11-15T06:42:31;2.70;;;2.00;;
67869;SDS011;54673;52.262;6.830;2022-11-15T06:44:57;4.40;;;2.60;;
67869;SDS011;54673;52.262;6.830;2022-11-15T06:47:22;3.07;;;2.40;;
67869;SDS011;54673;52.262;6.830;2022-11-15T06:49:48;3.80;;;1.88;;
67869;SDS011;54673;52.262;6.830;2022-11-15T06:52:13;4.83;;;2.50;;
67869;SDS011;54673;52.262;6.830;2022-11-15T06:54:39;3.90;;;2.20;;
67869;SDS011;54673;52.262;6.830;2022-11-15T06:57:05;2.83;;;1.98;;
67869;SDS011;54673;52.262;6.830;2022-11-15T06:59:30;4.10;;;1.90;;
67869;SDS011;54673;52.262;6.830;2022-11-15T07:01:56;4.90;;;2.15;;
67869;SDS011;54673;52.262;6.830;2022-11-15T07:04:22;2.73;;;2.13;;
67869;SDS011;54673;52.262;6.830;2022-11-15T07:06:47;4.00;;;2.22;;
67869;SDS011;54673;52.262;6.830;2022-11-15T07:09:13;4.87;;;2.40;;
67869;SDS011;54673;52.262;6.830;2022-11-15T07:11:39;3.22;;;2.00;;
67869;SDS011;54673;52.262;6.830;2022-11-15T07:14:04;2.20;;;1.90;;
67869;SDS011;54673;52.262;6.830;2022-11-15T07:16:30;2.83;;;1.95;;
67869;SDS011;54673;52.262;6.830;2022-11-15T07:18:55;3.40;;;2.00;;
67869;SDS011;54673;52.262;6.830;2022-11-15T07:21:21;2.53;;;2.23;;
67869;SDS011;54673;52.262;6.830;2022-11-15T07:23:47;4.57;;;2.30;;
67869;SDS011;54673;52.262;6.830;2022-11-15T07:26:12;3.07;;;2.20;;
67869;SDS011;54673;52.262;6.830;2022-11-15T07:28:38;5.73;;;2.30;;
67869;SDS011;54673;52.262;6.830;2022-11-15T07:31:04;3.00;;;2.30;;
67869;SDS011;54673;52.262;6.830;2022-11-15T07:33:31;2.33;;;1.83;;
67869;SDS011;54673;52.262;6.830;2022-11-15T07:36:00;2.80;;;2.25;;
67869;SDS011;54673;52.262;6.830;2022-11-15T07:38:27;3.22;;;2.20;;
67869;SDS011;54673;52.262;6.830;2022-11-15T07:41:00;2.57;;;2.00;;
67869;SDS011;54673;52.262;6.830;2022-11-15T07:43:29;3.65;;;2.20;;
67869;SDS011;54673;52.262;6.830;2022-11-15T07:45:57;2.90;;;2.00;;
67869;SDS011;54673;52.262;6.830;2022-11-15T07:48:23;2.90;;;2.10;;
67869;SDS011;54673;52.262;6.830;2022-11-15T07:50:49;2.67;;;1.93;;
67869;SDS011;54673;52.262;6.830;2022-11-15T07:53:15;4.28;;;2.17;;
67869;SDS011;54673;52.262;6.830;2022-11-15T07:55:41;2.93;;;2.00;;
67869;SDS011;54673;52.262;6.830;2022-11-15T07:58:08;4.18;;;2.10;;
67869;SDS011;54673;52.262;6.830;2022-11-15T08:00:35;3.22;;;1.95;;
67869;SDS011;54673;52.262;6.830;2022-11-15T08:03:02;3.30;;;1.83;;
67869;SDS011;54673;52.262;6.830;2022-11-15T08:05:28;4.15;;;2.22;;
67869;SDS011;54673;52.262;6.830;2022-11-15T08:07:56;2.13;;;1.80;;
67869;SDS011;54673;52.262;6.830;2022-11-15T08:10:22;3.72;;;2.33;;
67869;SDS011;54673;52.262;6.830;2022-11-15T08:12:56;4.47;;;2.10;;
67869;SDS011;54673;52.262;6.830;2022-11-15T08:15:29;3.60;;;1.98;;
67869;SDS011;54673;52.262;6.830;2022-11-15T08:17:58;3.15;;;2.00;;
67869;SDS011;54673;52.262;6.830;2022-11-15T08:20:26;2.87;;;1.80;;
67869;SDS011;54673;52.262;6.830;2022-11-15T08:22:56;2.83;;;1.98;;
67869;SDS011;54673;52.262;6.830;2022-11-15T08:25:22;2.73;;;1.80;;
67869;SDS011;54673;52.262;6.830;2022-11-15T08:27:50;2.92;;;1.80;;
67869;SDS011;54673;52.262;6.830;2022-11-15T08:30:20;3.55;;;2.00;;
67869;SDS011;54673;52.262;6.830;2022-11-15T08:32:46;2.53;;;2.10;;
67869;SDS011;54673;52.262;6.830;2022-11-15T08:35:12;9.98;;;2.50;;
67869;SDS011;54673;52.262;6.830;2022-11-15T08:37:38;3.53;;;2.10;;
67869;SDS011;54673;52.262;6.830;2022-11-15T08:40:04;5.43;;;2.50;;
67869;SDS011;54673;52.262;6.830;2022-11-15T08:42:30;4.97;;;2.03;;
67869;SDS011;54673;52.262;6.830;2022-11-15T08:44:56;5.93;;;2.30;;
67869;SDS011;54673;52.262;6.830;2022-11-15T08:47:21;7.50;;;2.47;;
67869;SDS011;54673;52.262;6.830;2022-11-15T08:49:47;6.17;;;2.00;;
67869;SDS011;54673;52.262;6.830;2022-11-15T08:52:13;4.85;;;2.28;;
67869;SDS011;54673;52.262;6.830;2022-11-15T08:54:39;3.90;;;2.05;;
67869;SDS011;54673;52.262;6.830;2022-11-15T08:57:04;8.43;;;2.10;;
67869;SDS011;54673;52.262;6.830;2022-11-15T08:59:31;4.85;;;2.10;;
67869;SDS011;54673;52.262;6.830;2022-11-15T09:01:56;5.67;;;2.10;;
67869;SDS011;54673;52.262;6.830;2022-11-15T09:04:22;4.97;;;1.87;;
67869;SDS011;54673;52.262;6.830;2022-11-15T09:06:47;4.18;;;2.15;;
67869;SDS011;54673;52.262;6.830;2022-11-15T09:09:13;4.37;;;2.27;;
67869;SDS011;54673;52.262;6.830;2022-11-15T09:11:39;5.30;;;2.08;;
67869;SDS011;54673;52.262;6.830;2022-11-15T09:14:04;3.87;;;2.10;;
67869;SDS011;54673;52.262;6.830;2022-11-15T09:16:30;5.17;;;1.80;;
67869;SDS011;54673;52.262;6.830;2022-11-15T09:18:56;8.30;;;1.88;;
67869;SDS011;54673;52.262;6.830;2022-11-15T09:21:22;4.00;;;1.80;;
67869;SDS011;54673;52.262;6.830;2022-11-15T09:23:50;3.23;;;1.77;;
67869;SDS011;54673;52.262;6.830;2022-11-15T09:26:16;2.00;;;1.70;;
67869;SDS011;54673;52.262;6.830;2022-11-15T09:28:43;3.73;;;2.00;;
67869;SDS011;54673;52.262;6.830;2022-11-15T09:31:09;4.63;;;1.90;;
67869;SDS011;54673;52.262;6.830;2022-11-15T09:33:35;2.42;;;1.67;;
67869;SDS011;54673;52.262;6.830;2022-11-15T09:36:02;4.83;;;2.13;;
67869;SDS011;54673;52.262;6.830;2022-11-15T09:38:30;5.82;;;1.88;;
67869;SDS011;54673;52.262;6.830;2022-11-15T09:41:08;2.10;;;1.70;;
67869;SDS011;54673;52.262;6.830;2022-11-15T09:43:50;4.13;;;1.98;;
67869;SDS011;54673;52.262;6.830;2022-11-15T09:49:09;5.50;;;2.17;;
67869;SDS011;54673;52.262;6.830;2022-11-15T09:51:43;4.70;;;2.00;;
67869;SDS011;54673;52.262;6.830;2022-11-15T09:57:12;7.20;;;1.90;;
67869;SDS011;54673;52.262;6.830;2022-11-15T09:59:55;5.10;;;2.05;;
67869;SDS011;54673;52.262;6.830;2022-11-15T10:02:41;5.70;;;1.60;;
67869;SDS011;54673;52.262;6.830;2022-11-15T10:05:21;4.70;;;1.77;;
67869;SDS011;54673;52.262;6.830;2022-11-15T10:07:58;5.32;;;1.70;;
67869;SDS011;54673;52.262;6.830;2022-11-15T10:10:34;6.57;;;2.03;;
67869;SDS011;54673;52.262;6.830;2022-11-15T10:15:57;9.03;;;1.57;;
67869;SDS011;54673;52.262;6.830;2022-11-15T10:18:35;3.08;;;1.70;;
67869;SDS011;54673;52.262;6.830;2022-11-15T10:21:15;5.95;;;2.10;;
67869;SDS011;54673;52.262;6.830;2022-11-15T10:23:44;4.20;;;1.50;;
67869;SDS011;54673;52.262;6.830;2022-11-15T10:26:11;4.55;;;1.80;;
67869;SDS011;54673;52.262;6.830;2022-11-15T10:28:40;2.83;;;1.60;;
67869;SDS011;54673;52.262;6.830;2022-11-15T10:31:21;3.53;;;1.60;;
67869;SDS011;54673;52.262;6.830;2022-11-15T10:33:49;3.10;;;1.45;;
67869;SDS011;54673;52.262;6.830;2022-11-15T10:36:17;4.50;;;1.37;;
67869;SDS011;54673;52.262;6.830;2022-11-15T10:41:13;3.00;;;1.80;;
67869;SDS011;54673;52.262;6.830;2022-11-15T10:43:40;1.85;;;1.60;;
67869;SDS011;54673;52.262;6.830;2022-11-15T10:46:18;4.45;;;1.50;;
67869;SDS011;54673;52.262;6.830;2022-11-15T10:48:45;3.67;;;1.40;;
67869;SDS011;54673;52.262;6.830;2022-11-15T10:51:22;2.05;;;1.30;;
67869;SDS011;54673;52.262;6.830;2022-11-15T10:53:58;2.83;;;1.47;;
67869;SDS011;54673;52.262;6.830;2022-11-15T10:56:26;5.38;;;1.48;;
67869;SDS011;54673;52.262;6.830;2022-11-15T10:59:01;3.10;;;1.70;;
67869;SDS011;54673;52.262;6.830;2022-11-15T11:01:27;2.22;;;1.35;;
67869;SDS011;54673;52.262;6.830;2022-11-15T11:07:20;2.20;;;1.40;;
67869;SDS011;54673;52.262;6.830;2022-11-15T11:09:33;3.38;;;1.30;;
67869;SDS011;54673;52.262;6.830;2022-11-15T11:12:04;2.67;;;1.30;;
67869;SDS011;54673;52.262;6.830;2022-11-15T11:14:32;4.53;;;1.88;;
67869;SDS011;54673;52.262;6.830;2022-11-15T11:33:52;1.70;;;1.43;;
67869;SDS011;54673;52.262;6.830;2022-11-15T11:47:47;12.33;;;1.30;;
67869;SDS011;54673;52.262;6.830;2022-11-15T11:50:19;2.33;;;1.23;;
67869;SDS011;54673;52.262;6.830;2022-11-15T11:56:10;2.50;;;1.30;;
67869;SDS011;54673;52.262;6.830;2022-11-15T11:58:43;1.55;;;1.30;;
67869;SDS011;54673;52.262;6.830;2022-11-15T12:01:16;2.63;;;1.33;;
67869;SDS011;54673;52.262;6.830;2022-11-15T12:06:24;2.70;;;1.27;;
67869;SDS011;54673;52.262;6.830;2022-11-15T12:09:23;1.88;;;1.35;;
67869;SDS011;54673;52.262;6.830;2022-11-15T12:14:54;1.70;;;1.20;;
67869;SDS011;54673;52.262;6.830;2022-11-15T12:17:23;2.40;;;1.30;;
67869;SDS011;54673;52.262;6.830;2022-11-15T12:19:57;3.43;;;1.10;;
67869;SDS011;54673;52.262;6.830;2022-11-15T12:25:20;3.45;;;1.10;;
67869;SDS011;54673;52.262;6.830;2022-11-15T12:28:19;5.03;;;1.30;;
67869;SDS011;54673;52.262;6.830;2022-11-15T12:30:54;7.72;;;1.63;;
67869;SDS011;54673;52.262;6.830;2022-11-15T12:36:02;3.35;;;1.38;;
67869;SDS011;54673;52.262;6.830;2022-11-15T12:41:25;5.63;;;1.40;;
67869;SDS011;54673;52.262;6.830;2022-11-15T12:43:53;3.58;;;1.38;;
67869;SDS011;54673;52.262;6.830;2022-11-15T12:47:03;4.57;;;1.30;;
67869;SDS011;54673;52.262;6.830;2022-11-15T12:49:41;2.28;;;1.13;;
67869;SDS011;54673;52.262;6.830;2022-11-15T12:54:48;2.23;;;1.23;;
67869;SDS011;54673;52.262;6.830;2022-11-15T12:59:57;1.63;;;1.37;;
67869;SDS011;54673;52.262;6.830;2022-11-15T13:02:30;2.58;;;1.50;;
67869;SDS011;54673;52.262;6.830;2022-11-15T13:10:28;5.07;;;1.50;;
67869;SDS011;54673;52.262;6.830;2022-11-15T13:13:08;1.95;;;1.02;;
67869;SDS011;54673;52.262;6.830;2022-11-15T13:18:48;2.88;;;1.60;;
67869;SDS011;54673;52.262;6.830;2022-11-15T13:21:00;2.97;;;1.58;;
67869;SDS011;54673;52.262;6.830;2022-11-15T13:23:26;4.33;;;1.17;;
67869;SDS011;54673;52.262;6.830;2022-11-15T13:28:44;2.80;;;1.50;;
67869;SDS011;54673;52.262;6.830;2022-11-15T13:33:52;4.95;;;1.20;;
67869;SDS011;54673;52.262;6.830;2022-11-15T13:36:20;5.27;;;1.20;;
67869;SDS011;54673;52.262;6.830;2022-11-15T13:39:05;2.03;;;1.30;;
67869;SDS011;54673;52.262;6.830;2022-11-15T13:41:46;3.10;;;1.20;;
67869;SDS011;54673;52.262;6.830;2022-11-15T13:44:25;4.68;;;1.52;;
67869;SDS011;54673;52.262;6.830;2022-11-15T13:49:34;2.40;;;1.50;;
67869;SDS011;54673;52.262;6.830;2022-11-15T13:52:00;1.75;;;1.10;;
67869;SDS011;54673;52.262;6.830;2022-11-15T13:57:12;4.22;;;1.25;;
67869;SDS011;54673;52.262;6.830;2022-11-15T13:59:46;2.53;;;1.20;;
67869;SDS011;54673;52.262;6.830;2022-11-15T14:02:29;2.20;;;1.10;;
67869;SDS011;54673;52.262;6.830;2022-11-15T14:07:59;2.87;;;1.40;;
67869;SDS011;54673;52.262;6.830;2022-11-15T14:10:47;2.17;;;1.30;;
67869;SDS011;54673;52.262;6.830;2022-11-15T14:13:27;1.40;;;1.13;;
67869;SDS011;54673;52.262;6.830;2022-11-15T14:15:53;1.83;;;1.33;;
67869;SDS011;54673;52.262;6.830;2022-11-15T14:21:10;2.73;;;1.30;;
67869;SDS011;54673;52.262;6.830;2022-11-15T14:23:35;2.30;;;1.42;;
67869;SDS011;54673;52.262;6.830;2022-11-15T14:26:01;2.70;;;1.40;;
67869;SDS011;54673;52.262;6.830;2022-11-15T14:28:31;2.35;;;1.33;;
67869;SDS011;54673;52.262;6.830;2022-11-15T14:31:02;2.00;;;1.47;;
67869;SDS011;54673;52.262;6.830;2022-11-15T14:33:37;1.40;;;1.00;;
67869;SDS011;54673;52.262;6.830;2022-11-15T14:36:11;1.92;;;1.02;;
67869;SDS011;54673;52.262;6.830;2022-11-15T14:38:41;9.60;;;1.63;;
67869;SDS011;54673;52.262;6.830;2022-11-15T14:41:17;3.90;;;1.42;;
67869;SDS011;54673;52.262;6.830;2022-11-15T14:43:44;2.23;;;1.40;;
67869;SDS011;54673;52.262;6.830;2022-11-15T14:46:10;1.52;;;1.20;;
67869;SDS011;54673;52.262;6.830;2022-11-15T14:48:36;1.67;;;1.40;;
67869;SDS011;54673;52.262;6.830;2022-11-15T14:51:01;2.30;;;1.23;;
67869;SDS011;54673;52.262;6.830;2022-11-15T14:53:27;3.58;;;1.10;;
67869;SDS011;54673;52.262;6.830;2022-11-15T14:55:52;1.67;;;1.30;;
67869;SDS011;54673;52.262;6.830;2022-11-15T14:58:18;2.55;;;1.10;;
67869;SDS011;54673;52.262;6.830;2022-11-15T15:00:44;3.13;;;1.30;;
67869;SDS011;54673;52.262;6.830;2022-11-15T15:03:09;2.00;;;1.35;;
67869;SDS011;54673;52.262;6.830;2022-11-15T15:05:40;1.73;;;1.30;;
67869;SDS011;54673;52.262;6.830;2022-11-15T15:08:07;1.88;;;1.10;;
67869;SDS011;54673;52.262;6.830;2022-11-15T15:10:37;2.67;;;1.60;;
67869;SDS011;54673;52.262;6.830;2022-11-15T15:13:18;1.88;;;1.02;;
67869;SDS011;54673;52.262;6.830;2022-11-15T15:15:48;2.17;;;1.20;;
67869;SDS011;54673;52.262;6.830;2022-11-15T15:18:15;1.87;;;1.33;;
67869;SDS011;54673;52.262;6.830;2022-11-15T15:20:41;3.25;;;1.23;;
67869;SDS011;54673;52.262;6.830;2022-11-15T15:23:19;3.27;;;1.30;;
67869;SDS011;54673;52.262;6.830;2022-11-15T15:25:45;3.45;;;1.17;;
67869;SDS011;54673;52.262;6.830;2022-11-15T15:28:13;2.42;;;1.15;;
67869;SDS011;54673;52.262;6.830;2022-11-15T15:30:39;2.67;;;1.00;;
67869;SDS011;54673;52.262;6.830;2022-11-15T15:33:05;1.98;;;1.10;;
67869;SDS011;54673;52.262;6.830;2022-11-15T15:35:31;1.50;;;1.10;;
67869;SDS011;54673;52.262;6.830;2022-11-15T15:37:59;2.10;;;1.23;;
67869;SDS011;54673;52.262;6.830;2022-11-15T15:40:25;2.43;;;1.30;;
67869;SDS011;54673;52.262;6.830;2022-11-15T15:42:53;3.88;;;1.20;;
67869;SDS011;54673;52.262;6.830;2022-11-15T15:45:19;2.65;;;1.02;;
67869;SDS011;54673;52.262;6.830;2022-11-15T15:47:45;6.20;;;1.30;;
67869;SDS011;54673;52.262;6.830;2022-11-15T15:50:22;10.27;;;1.52;;
67869;SDS011;54673;52.262;6.830;2022-11-15T15:52:55;2.47;;;1.30;;
67869;SDS011;54673;52.262;6.830;2022-11-15T15:55:22;3.13;;;1.17;;
67869;SDS011;54673;52.262;6.830;2022-11-15T15:57:48;1.70;;;1.10;;
67869;SDS011;54673;52.262;6.830;2022-11-15T16:00:14;1.87;;;1.00;;
67869;SDS011;54673;52.262;6.830;2022-11-15T16:02:40;2.78;;;1.10;;
67869;SDS011;54673;52.262;6.830;2022-11-15T16:05:06;4.13;;;1.40;;
67869;SDS011;54673;52.262;6.830;2022-11-15T16:07:33;1.65;;;1.15;;
67869;SDS011;54673;52.262;6.830;2022-11-15T16:09:58;2.07;;;1.10;;
67869;SDS011;54673;52.262;6.830;2022-11-15T16:12:31;1.20;;;1.00;;
67869;SDS011;54673;52.262;6.830;2022-11-15T16:14:58;1.83;;;1.27;;
67869;SDS011;54673;52.262;6.830;2022-11-15T16:17:26;2.73;;;1.10;;
67869;SDS011;54673;52.262;6.830;2022-11-15T16:19:55;1.67;;;1.27;;
67869;SDS011;54673;52.262;6.830;2022-11-15T16:22:21;2.10;;;1.07;;
67869;SDS011;54673;52.262;6.830;2022-11-15T16:24:46;1.30;;;0.90;;
67869;SDS011;54673;52.262;6.830;2022-11-15T16:27:13;3.00;;;1.00;;
67869;SDS011;54673;52.262;6.830;2022-11-15T16:29:40;1.67;;;0.90;;
67869;SDS011;54673;52.262;6.830;2022-11-15T16:32:06;1.27;;;1.00;;
67869;SDS011;54673;52.262;6.830;2022-11-15T16:34:31;2.97;;;1.10;;
67869;SDS011;54673;52.262;6.830;2022-11-15T16:36:57;2.20;;;1.10;;
67869;SDS011;54673;52.262;6.830;2022-11-15T16:39:22;1.77;;;1.00;;
67869;SDS011;54673;52.262;6.830;2022-11-15T16:41:48;1.90;;;1.20;;
67869;SDS011;54673;52.262;6.830;2022-11-15T16:44:14;1.83;;;1.10;;
67869;SDS011;54673;52.262;6.830;2022-11-15T16:46:42;2.78;;;1.00;;
67869;SDS011;54673;52.262;6.830;2022-11-15T16:49:14;5.53;;;1.10;;
67869;SDS011;54673;52.262;6.830;2022-11-15T16:51:47;1.77;;;1.02;;
67869;SDS011;54673;52.262;6.830;2022-11-15T16:54:13;2.13;;;0.90;;
67869;SDS011;54673;52.262;6.830;2022-11-15T16:56:39;5.63;;;1.25;;
67869;SDS011;54673;52.262;6.830;2022-11-15T16:59:05;2.10;;;1.00;;
67869;SDS011;54673;52.262;6.830;2022-11-15T17:01:35;2.50;;;1.20;;
67869;SDS011;54673;52.262;6.830;2022-11-15T17:04:10;2.45;;;1.00;;
67869;SDS011;54673;52.262;6.830;2022-11-15T17:06:40;2.90;;;1.17;;
67869;SDS011;54673;52.262;6.830;2022-11-15T17:09:25;1.67;;;1.00;;